createdAt,value
2023-04-18T00:00:01.230Z,101539.27
2023-04-18T00:15:09.058Z,101535.70
2023-04-18T00:30:13.250Z,101538.31
2023-04-18T00:45:31.220Z,101541.61
2023-04-18T01:00:35.177Z,101539.56
2023-04-18T01:15:42.457Z,101531.30
2023-04-18T01:30:46.692Z,101532.48
2023-04-18T01:45:50.637Z,101528.80
2023-04-18T02:00:58.085Z,101534.27
2023-04-18T02:16:16.547Z,101529.61
2023-04-18T02:31:34.453Z,101526.13
2023-04-18T02:46:38.440Z,101522.98
2023-04-18T03:17:01.057Z,101523.52
2023-04-18T03:47:24.030Z,101531.33
2023-04-18T04:02:28.148Z,101528.27
2023-04-18T04:17:46.207Z,101533.81
2023-04-18T04:32:50.250Z,101540.59
2023-04-18T04:48:09.580Z,101547.95
2023-04-18T05:03:14.176Z,101558.67
2023-04-18T05:18:18.897Z,101565.11
2023-04-18T05:33:23.145Z,101569.63
2023-04-18T05:48:27.820Z,101570.95
2023-04-18T06:03:32.282Z,101571.16
2023-04-18T06:18:50.433Z,101570.26
2023-04-18T07:04:44.268Z,101600.23
2023-04-18T07:35:21.070Z,101617.88
2023-04-18T08:05:44.374Z,101627.90
2023-04-18T08:20:49.082Z,101631.67
2023-04-18T08:35:53.368Z,101630.78
2023-04-18T08:51:00.103Z,101635.02
2023-04-18T09:06:19.581Z,101638.96
2023-04-18T09:21:23.905Z,101639.02
2023-04-18T09:36:28.712Z,101638.86
2023-04-18T09:51:35.661Z,101638.29
2023-04-18T10:06:42.407Z,101640.71
2023-04-18T10:22:02.247Z,101637.54
2023-04-18T10:52:39.569Z,101623.27
2023-04-18T11:23:04.345Z,101617.25
2023-04-18T11:38:34.529Z,101609.34
2023-04-18T12:09:01.749Z,101591.47
2023-04-18T12:24:17.133Z,101590.92
2023-04-18T13:10:13.830Z,101563.38
2023-04-18T13:25:18.643Z,101555.36
2023-04-18T13:40:23.012Z,101548.35
2023-04-18T13:55:27.669Z,101548.35
2023-04-18T14:10:32.198Z,101542.65
2023-04-18T14:25:36.406Z,101543.55
2023-04-18T14:44:24.917Z,101537.98
2023-04-18T14:59:28.182Z,101532.61
2023-04-18T15:14:32.745Z,101523.71
2023-04-18T15:29:36.228Z,101521.38
2023-04-18T15:44:38.863Z,101516.36
2023-04-18T15:59:41.359Z,101512.87
2023-04-18T16:14:58.498Z,101523.26
2023-04-18T16:30:15.882Z,101513.23
2023-04-18T16:45:18.694Z,101503.53
2023-04-18T17:00:21.252Z,101509.79
2023-04-18T17:15:26.660Z,101510.39
2023-04-18T17:30:29.534Z,101502.63
2023-04-18T17:45:46.686Z,101504.50
2023-04-18T18:00:49.275Z,101517.01
2023-04-18T18:15:51.740Z,101523.48
2023-04-18T18:31:09.037Z,101533.38
2023-04-18T18:46:11.566Z,101537.49
2023-04-18T19:01:14.184Z,101544.27
2023-04-18T19:16:17.115Z,101539.99
2023-04-18T19:31:19.933Z,101540.12
2023-04-18T19:46:22.478Z,101532.14
2023-04-18T20:01:25.228Z,101529.98
2023-04-18T20:16:28.131Z,101522.70
2023-04-18T20:31:45.539Z,101522.33
2023-04-18T20:47:02.790Z,101520.50
2023-04-18T21:02:07.501Z,101519.59
2023-04-18T21:17:25.224Z,101502.52
2023-04-18T21:32:28.024Z,101485.96
2023-04-18T21:47:32.434Z,101481.91
2023-04-18T22:02:35.106Z,101477.64
2023-04-18T22:17:40.840Z,101465.02
2023-04-18T22:32:43.609Z,101453.02
2023-04-18T22:47:46.826Z,101443.47
2023-04-18T23:18:36.648Z,101416.71
2023-04-18T23:33:55.866Z,101400.79
2023-04-18T23:48:58.274Z,101388.73
